Time;durP1;ratioP1;P1;durP2;ratioP2;P2;SDS_P1;SDS_P2;PMS_P1;PMS_P2;Temp;Humidity;BMP_temperature;BMP_pressure;BME280_temperature;BME280_humidity;BME280_pressure;Samples;Min_cycle;Max_cycle;Signal;HPM_P1;HPM_P2
2022/04/09 00:00:13;;;;;;;5.82;3.05;;;;;;;;;;4971666;28;20186;-75
2022/04/09 00:02:39;;;;;;;7.47;3.20;;;;;;;;;;4957190;28;20198;-75
2022/04/09 00:05:05;;;;;;;4.93;3.20;;;;;;;;;;4957334;28;20270;-74
2022/04/09 00:07:31;;;;;;;14.50;4.82;;;;;;;;;;4957024;28;20223;-74
2022/04/09 00:09:57;;;;;;;9.88;4.05;;;;;;;;;;4957048;28;20261;-74
2022/04/09 00:12:23;;;;;;;6.78;3.83;;;;;;;;;;4956708;28;20199;-75
2022/04/09 00:14:49;;;;;;;5.00;3.57;;;;;;;;;;4956842;28;20188;-75
2022/04/09 00:17:15;;;;;;;7.35;3.30;;;;;;;;;;4956959;28;20425;-75
2022/04/09 00:19:41;;;;;;;21.23;3.80;;;;;;;;;;4956913;28;20235;-76
2022/04/09 00:22:07;;;;;;;4.55;3.38;;;;;;;;;;4955062;29;20442;-74
2022/04/09 00:24:33;;;;;;;15.57;3.75;;;;;;;;;;4956597;28;20238;-76
2022/04/09 00:26:59;;;;;;;8.00;3.30;;;;;;;;;;4956432;28;20220;-76
2022/04/09 00:29:25;;;;;;;8.33;3.33;;;;;;;;;;4955600;28;20474;-74
2022/04/09 00:31:51;;;;;;;14.68;3.63;;;;;;;;;;4956324;28;20430;-74
2022/04/09 00:34:17;;;;;;;6.07;2.90;;;;;;;;;;4956519;28;20655;-75
2022/04/09 00:36:43;;;;;;;7.80;2.60;;;;;;;;;;4955105;28;20178;-74
2022/04/09 00:39:09;;;;;;;5.77;3.10;;;;;;;;;;4955692;28;20190;-75
2022/04/09 00:41:35;;;;;;;12.13;3.00;;;;;;;;;;4956015;28;20511;-73
2022/04/09 00:44:01;;;;;;;6.77;2.30;;;;;;;;;;4956838;28;20499;-75
2022/04/09 00:46:27;;;;;;;12.50;3.83;;;;;;;;;;4956486;28;20505;-74
2022/04/09 00:48:53;;;;;;;8.80;3.27;;;;;;;;;;4956207;28;20299;-75
2022/04/09 00:51:19;;;;;;;8.43;3.47;;;;;;;;;;4955461;28;20456;-74
2022/04/09 00:53:47;;;;;;;9.02;2.70;;;;;;;;;;4956272;28;20506;-75
2022/04/09 00:56:15;;;;;;;16.55;3.88;;;;;;;;;;4956386;28;20178;-74
2022/04/09 00:58:44;;;;;;;7.00;3.15;;;;;;;;;;4956295;28;20178;-73
2022/04/09 01:01:11;;;;;;;11.02;2.78;;;;;;;;;;4955465;28;20278;-75
2022/04/09 01:03:38;;;;;;;12.00;3.25;;;;;;;;;;4970960;28;20683;-74
2022/04/09 01:06:06;;;;;;;7.10;3.33;;;;;;;;;;4955898;28;20181;-75
2022/04/09 01:08:32;;;;;;;5.32;2.92;;;;;;;;;;4955707;28;20210;-75
2022/04/09 01:10:58;;;;;;;11.43;2.75;;;;;;;;;;4955479;28;20202;-75
2022/04/09 01:13:24;;;;;;;14.75;2.75;;;;;;;;;;4955674;28;20265;-76
2022/04/09 01:15:50;;;;;;;8.50;2.50;;;;;;;;;;4955841;28;20274;-76
2022/04/09 01:18:18;;;;;;;9.60;2.28;;;;;;;;;;4955749;28;20194;-76
2022/04/09 01:20:44;;;;;;;12.48;3.40;;;;;;;;;;4955642;28;20191;-74
2022/04/09 01:23:10;;;;;;;14.70;3.28;;;;;;;;;;4955701;28;20242;-74
2022/04/09 01:25:37;;;;;;;9.15;3.08;;;;;;;;;;4955646;28;20194;-76
2022/04/09 01:28:04;;;;;;;11.02;3.20;;;;;;;;;;4955508;28;20175;-74
2022/04/09 01:30:30;;;;;;;13.38;3.15;;;;;;;;;;4955150;28;20222;-74
2022/04/09 01:32:56;;;;;;;12.07;3.00;;;;;;;;;;4955331;28;20660;-75
2022/04/09 01:35:22;;;;;;;9.88;2.85;;;;;;;;;;4955360;28;20189;-75
2022/04/09 01:37:48;;;;;;;11.57;3.33;;;;;;;;;;4955521;28;20189;-74
2022/04/09 01:40:14;;;;;;;9.75;3.30;;;;;;;;;;4954932;28;20529;-74
2022/04/09 01:42:40;;;;;;;12.07;3.83;;;;;;;;;;4955273;28;20250;-75
2022/04/09 01:45:07;;;;;;;9.65;3.17;;;;;;;;;;4955425;28;20194;-75
2022/04/09 01:47:34;;;;;;;16.73;3.10;;;;;;;;;;4969929;28;20194;-76
2022/04/09 01:50:00;;;;;;;9.68;3.10;;;;;;;;;;4955049;28;20245;-76
2022/04/09 01:52:26;;;;;;;10.05;2.85;;;;;;;;;;4954505;28;20252;-75
2022/04/09 01:54:52;;;;;;;15.35;3.20;;;;;;;;;;4955330;28;20260;-75
2022/04/09 01:57:18;;;;;;;9.30;2.60;;;;;;;;;;4955342;28;20314;-75
2022/04/09 01:59:44;;;;;;;11.30;3.53;;;;;;;;;;4955052;28;20649;-73
2022/04/09 02:02:11;;;;;;;8.68;2.97;;;;;;;;;;4954558;28;20204;-74
2022/04/09 02:04:37;;;;;;;18.23;4.18;;;;;;;;;;4955048;28;20591;-76
2022/04/09 02:07:03;;;;;;;12.43;3.35;;;;;;;;;;4955040;28;20213;-74
2022/04/09 02:09:29;;;;;;;17.80;3.70;;;;;;;;;;4954872;28;20209;-76
2022/04/09 02:11:55;;;;;;;8.50;2.90;;;;;;;;;;4954486;28;20218;-75
2022/04/09 02:14:21;;;;;;;10.75;3.47;;;;;;;;;;4954989;28;20418;-75
2022/04/09 02:16:47;;;;;;;9.67;3.27;;;;;;;;;;4955011;28;20228;-74
2022/04/09 02:19:13;;;;;;;8.93;3.03;;;;;;;;;;4955016;28;20439;-74
2022/04/09 02:21:39;;;;;;;13.70;3.70;;;;;;;;;;4954673;28;20217;-74
2022/04/09 02:24:05;;;;;;;11.40;3.57;;;;;;;;;;4969734;28;20429;-73
2022/04/09 02:26:31;;;;;;;12.20;3.97;;;;;;;;;;4954906;28;20433;-76
2022/04/09 02:28:57;;;;;;;19.20;4.20;;;;;;;;;;4954877;28;20683;-74
2022/04/09 02:31:23;;;;;;;6.30;2.27;;;;;;;;;;4954500;28;20430;-75
2022/04/09 02:33:49;;;;;;;9.75;3.72;;;;;;;;;;4954508;28;20779;-75
2022/04/09 02:36:16;;;;;;;13.02;3.45;;;;;;;;;;4954701;28;20257;-73
2022/04/09 02:38:43;;;;;;;11.65;4.07;;;;;;;;;;4954835;28;20174;-75
2022/04/09 02:41:09;;;;;;;13.93;4.15;;;;;;;;;;4954386;28;20195;-73
2022/04/09 02:43:35;;;;;;;18.98;4.85;;;;;;;;;;4954657;28;20171;-75
2022/04/09 02:46:02;;;;;;;14.30;3.92;;;;;;;;;;4954506;28;20176;-74
2022/04/09 02:48:28;;;;;;;22.70;5.40;;;;;;;;;;4954599;28;20179;-75
2022/04/09 02:50:54;;;;;;;16.70;3.90;;;;;;;;;;4954090;28;20558;-75
2022/04/09 02:53:20;;;;;;;15.00;3.72;;;;;;;;;;4954604;28;20482;-74
2022/04/09 02:55:46;;;;;;;15.73;4.10;;;;;;;;;;4954564;28;20187;-75
2022/04/09 02:58:12;;;;;;;11.20;3.85;;;;;;;;;;4954447;28;20206;-75
2022/04/09 03:00:39;;;;;;;17.53;4.97;;;;;;;;;;4969557;28;20224;-76
2022/04/09 03:03:05;;;;;;;11.73;4.75;;;;;;;;;;4958217;28;20437;-73
2022/04/09 03:05:31;;;;;;;15.85;4.13;;;;;;;;;;4958245;28;20195;-74
2022/04/09 03:07:57;;;;;;;10.93;3.97;;;;;;;;;;4958076;28;20178;-75
2022/04/09 03:10:23;;;;;;;14.48;3.85;;;;;;;;;;4957532;28;20513;-74
2022/04/09 03:12:49;;;;;;;12.68;4.07;;;;;;;;;;4958088;28;20199;-75
2022/04/09 03:15:16;;;;;;;13.10;4.63;;;;;;;;;;4957937;28;20205;-75
2022/04/09 03:17:42;;;;;;;8.57;3.70;;;;;;;;;;4958061;28;20181;-73
2022/04/09 03:20:08;;;;;;;13.23;4.78;;;;;;;;;;4957786;28;20178;-73
2022/04/09 03:22:35;;;;;;;16.65;5.13;;;;;;;;;;4957870;28;20201;-75
2022/04/09 03:25:02;;;;;;;8.68;3.63;;;;;;;;;;4957978;28;20602;-74
2022/04/09 03:27:29;;;;;;;9.95;4.55;;;;;;;;;;4957715;28;20187;-76
2022/04/09 03:29:55;;;;;;;8.57;4.28;;;;;;;;;;4957692;28;20623;-75
2022/04/09 03:32:21;;;;;;;10.50;4.82;;;;;;;;;;4957148;28;20202;-74
2022/04/09 03:34:47;;;;;;;10.20;4.40;;;;;;;;;;4957735;28;20184;-74
2022/04/09 03:37:13;;;;;;;11.73;4.05;;;;;;;;;;4957798;28;20171;-75
2022/04/09 03:39:41;;;;;;;8.57;3.42;;;;;;;;;;4957653;28;20188;-75
2022/04/09 03:42:07;;;;;;;12.45;4.20;;;;;;;;;;4957106;28;20203;-75
2022/04/09 03:44:33;;;;;;;17.83;4.78;;;;;;;;;;4957528;28;20190;-74
2022/04/09 03:47:03;;;;;;;14.57;3.75;;;;;;;;;;4957408;28;20190;-75
2022/04/09 03:49:30;;;;;;;13.40;3.78;;;;;;;;;;4957245;28;20297;-75
2022/04/09 03:51:56;;;;;;;12.07;5.20;;;;;;;;;;4956738;28;20215;-75
2022/04/09 03:54:22;;;;;;;17.63;3.70;;;;;;;;;;4957141;28;20606;-77
2022/04/09 03:56:49;;;;;;;20.63;5.63;;;;;;;;;;4972017;28;20215;-74
2022/04/09 03:59:15;;;;;;;11.70;4.10;;;;;;;;;;4957395;28;20748;-74
2022/04/09 04:01:43;;;;;;;20.53;3.57;;;;;;;;;;4956924;28;20211;-75
2022/04/09 04:04:10;;;;;;;15.93;3.30;;;;;;;;;;4957252;28;20454;-74
2022/04/09 04:06:36;;;;;;;11.25;3.28;;;;;;;;;;4956941;28;20175;-76
2022/04/09 04:09:03;;;;;;;16.20;3.58;;;;;;;;;;4957079;28;20301;-74
2022/04/09 04:11:29;;;;;;;16.05;4.60;;;;;;;;;;4956429;28;20214;-75
2022/04/09 04:13:55;;;;;;;14.70;4.03;;;;;;;;;;4957058;28;20178;-73
2022/04/09 04:16:21;;;;;;;16.48;4.35;;;;;;;;;;4957121;28;20807;-74
2022/04/09 04:18:47;;;;;;;20.77;4.93;;;;;;;;;;4956980;28;20186;-73
2022/04/09 04:21:13;;;;;;;18.90;4.60;;;;;;;;;;4956573;28;20430;-76
2022/04/09 04:23:38;;;;;;;11.73;3.70;;;;;;;;;;4956868;28;20506;-74
2022/04/09 04:26:04;;;;;;;9.93;3.80;;;;;;;;;;4957383;28;20420;-74
2022/04/09 04:28:30;;;;;;;16.30;4.30;;;;;;;;;;4957263;28;20407;-75
2022/04/09 04:30:56;;;;;;;14.43;4.10;;;;;;;;;;4956401;28;20410;-75
2022/04/09 04:33:22;;;;;;;18.60;5.00;;;;;;;;;;4956643;28;20574;-74
2022/04/09 04:35:48;;;;;;;21.27;4.63;;;;;;;;;;4956535;28;20238;-76
2022/04/09 04:38:14;;;;;;;23.93;5.10;;;;;;;;;;4956519;28;20422;-74
2022/04/09 04:40:40;;;;;;;13.63;4.40;;;;;;;;;;4956018;28;20513;-75
2022/04/09 04:43:06;;;;;;;14.02;4.25;;;;;;;;;;4956216;28;20507;-75
2022/04/09 04:45:33;;;;;;;18.15;4.40;;;;;;;;;;4956343;28;20214;-75
2022/04/09 04:47:59;;;;;;;16.92;4.03;;;;;;;;;;4956319;28;20674;-74
2022/04/09 04:50:25;;;;;;;13.55;4.03;;;;;;;;;;4955833;28;20422;-75
2022/04/09 04:52:51;;;;;;;9.35;4.00;;;;;;;;;;4955914;28;20214;-74
2022/04/09 04:55:17;;;;;;;14.70;3.22;;;;;;;;;;4956032;28;20545;-75
2022/04/09 04:57:45;;;;;;;12.07;4.03;;;;;;;;;;4956166;28;20174;-74
2022/04/09 05:00:11;;;;;;;8.15;3.63;;;;;;;;;;4955822;28;20176;-74
2022/04/09 05:02:37;;;;;;;12.50;3.67;;;;;;;;;;4955987;28;20212;-75
2022/04/09 05:05:04;;;;;;;11.30;4.38;;;;;;;;;;4956140;28;20230;-75
2022/04/09 05:07:49;;;;;;;19.92;5.00;;;;;;;;;;4956110;28;20202;-75
2022/04/09 05:10:16;;;;;;;11.60;4.00;;;;;;;;;;4955489;28;20196;-76
2022/04/09 05:12:42;;;;;;;13.40;3.85;;;;;;;;;;4955848;28;20633;-76
2022/04/09 05:15:09;;;;;;;21.90;4.35;;;;;;;;;;4955719;28;20230;-74
2022/04/09 05:17:36;;;;;;;12.90;3.88;;;;;;;;;;4955981;28;20178;-75
2022/04/09 05:20:03;;;;;;;15.07;4.82;;;;;;;;;;4955821;28;20181;-75
2022/04/09 05:22:29;;;;;;;18.85;4.78;;;;;;;;;;4955457;28;20671;-73
2022/04/09 05:24:56;;;;;;;9.65;3.88;;;;;;;;;;4955031;28;20186;-74
2022/04/09 05:27:22;;;;;;;23.15;6.10;;;;;;;;;;4970362;28;20200;-73
2022/04/09 05:29:48;;;;;;;18.50;3.95;;;;;;;;;;4955758;28;20257;-74
2022/04/09 05:32:14;;;;;;;16.48;4.40;;;;;;;;;;4955134;28;20245;-75
2022/04/09 05:34:40;;;;;;;13.68;5.45;;;;;;;;;;4970390;28;20638;-74
2022/04/09 05:37:07;;;;;;;16.65;4.85;;;;;;;;;;4955378;28;20187;-74
2022/04/09 05:39:33;;;;;;;12.25;3.63;;;;;;;;;;4955363;28;20193;-74
2022/04/09 05:41:59;;;;;;;11.80;3.55;;;;;;;;;;4955206;28;20241;-75
2022/04/09 05:44:25;;;;;;;12.90;3.50;;;;;;;;;;4955387;28;20205;-74
2022/04/09 05:46:51;;;;;;;11.95;3.95;;;;;;;;;;4955309;28;20651;-74
2022/04/09 05:49:18;;;;;;;16.63;4.90;;;;;;;;;;4955009;28;20202;-75
2022/04/09 05:51:44;;;;;;;12.98;3.55;;;;;;;;;;4954645;28;20447;-74
2022/04/09 05:54:10;;;;;;;17.20;4.10;;;;;;;;;;4970095;28;20236;-74
2022/04/09 05:56:36;;;;;;;16.73;5.30;;;;;;;;;;4970076;28;20426;-73
2022/04/09 05:59:03;;;;;;;21.75;5.07;;;;;;;;;;4955190;28;20233;-75
2022/04/09 06:01:29;;;;;;;12.68;4.20;;;;;;;;;;4954870;28;20191;-75
2022/04/09 06:03:55;;;;;;;15.55;5.32;;;;;;;;;;4955380;28;20174;-74
2022/04/09 06:06:22;;;;;;;19.30;5.07;;;;;;;;;;4955143;28;20198;-75
2022/04/09 06:08:48;;;;;;;16.65;4.88;;;;;;;;;;4955137;28;20194;-74
2022/04/09 06:11:14;;;;;;;12.50;4.43;;;;;;;;;;4954541;28;20230;-75
2022/04/09 06:13:40;;;;;;;12.07;4.38;;;;;;;;;;4954952;28;20179;-74
2022/04/09 06:16:08;;;;;;;14.38;3.65;;;;;;;;;;4955647;28;20179;-75
2022/04/09 06:18:38;;;;;;;12.93;4.18;;;;;;;;;;4955867;28;20172;-74
2022/04/09 06:21:04;;;;;;;14.07;4.07;;;;;;;;;;4955478;28;20201;-73
2022/04/09 06:23:30;;;;;;;9.20;4.13;;;;;;;;;;4955331;28;20185;-75
2022/04/09 06:25:56;;;;;;;10.17;4.53;;;;;;;;;;4954790;28;20623;-74
2022/04/09 06:28:22;;;;;;;12.77;4.88;;;;;;;;;;4954893;28;20429;-74
2022/04/09 06:30:48;;;;;;;16.90;5.68;;;;;;;;;;4954556;28;20210;-75
2022/04/09 06:33:14;;;;;;;11.23;4.23;;;;;;;;;;4954930;28;20234;-75
2022/04/09 06:35:40;;;;;;;12.60;4.67;;;;;;;;;;4955254;28;20505;-75
2022/04/09 06:38:06;;;;;;;11.30;4.50;;;;;;;;;;4958625;28;20493;-72
2022/04/09 06:40:32;;;;;;;27.05;5.82;;;;;;;;;;4958304;28;20984;-73
2022/04/09 06:42:58;;;;;;;15.73;4.15;;;;;;;;;;4958551;28;20294;-73
2022/04/09 06:45:25;;;;;;;11.77;4.05;;;;;;;;;;4958411;28;20178;-74
2022/04/09 06:47:51;;;;;;;16.95;4.47;;;;;;;;;;4958331;28;20178;-74
2022/04/09 06:50:17;;;;;;;7.38;3.65;;;;;;;;;;4957923;28;20242;-73
2022/04/09 06:52:43;;;;;;;17.58;4.47;;;;;;;;;;4958237;28;20635;-73
2022/04/09 06:55:10;;;;;;;15.18;4.18;;;;;;;;;;4958142;28;20210;-73
2022/04/09 06:57:38;;;;;;;18.55;3.85;;;;;;;;;;4958012;28;20182;-75
2022/04/09 07:00:05;;;;;;;17.38;3.60;;;;;;;;;;4958043;28;20231;-75
2022/04/09 07:02:31;;;;;;;13.45;4.40;;;;;;;;;;4957994;28;20262;-74
2022/04/09 07:04:57;;;;;;;7.63;2.63;;;;;;;;;;4958262;28;20182;-74
2022/04/09 07:07:24;;;;;;;15.27;3.97;;;;;;;;;;4958321;28;20446;-74
2022/04/09 07:09:50;;;;;;;20.13;3.40;;;;;;;;;;4958352;28;20459;-74
2022/04/09 07:12:16;;;;;;;12.52;2.95;;;;;;;;;;4957713;28;20249;-72
2022/04/09 07:14:42;;;;;;;9.05;3.53;;;;;;;;;;4958242;28;20180;-74
2022/04/09 07:17:08;;;;;;;11.93;3.75;;;;;;;;;;4972990;28;20179;-75
2022/04/09 07:19:34;;;;;;;15.57;3.35;;;;;;;;;;4972956;28;20186;-75
2022/04/09 07:22:00;;;;;;;12.73;3.92;;;;;;;;;;4972322;28;20214;-75
2022/04/09 07:24:26;;;;;;;12.13;3.20;;;;;;;;;;4957880;28;20246;-74
2022/04/09 07:26:52;;;;;;;11.68;3.53;;;;;;;;;;4956720;29;20188;-74
2022/04/09 07:29:18;;;;;;;17.02;4.93;;;;;;;;;;4972440;28;20563;-74
2022/04/09 07:31:47;;;;;;;24.75;4.20;;;;;;;;;;4957368;28;20205;-74
2022/04/09 07:34:12;;;;;;;11.15;3.92;;;;;;;;;;4957648;28;20176;-73
2022/04/09 07:36:38;;;;;;;11.00;3.13;;;;;;;;;;4957743;28;20613;-73
2022/04/09 07:39:06;;;;;;;11.53;3.60;;;;;;;;;;4957694;28;20507;-72
2022/04/09 07:41:33;;;;;;;12.82;4.00;;;;;;;;;;4972049;28;20475;-75
2022/04/09 07:43:59;;;;;;;11.88;3.33;;;;;;;;;;4957214;28;20184;-73
2022/04/09 07:46:25;;;;;;;11.63;3.87;;;;;;;;;;4971503;28;20209;-73
2022/04/09 07:48:51;;;;;;;10.15;3.50;;;;;;;;;;4957302;28;20424;-73
2022/04/09 07:51:17;;;;;;;18.85;3.20;;;;;;;;;;4956788;28;20214;-74
2022/04/09 07:53:43;;;;;;;15.53;3.10;;;;;;;;;;4956910;28;20659;-75
2022/04/09 07:56:09;;;;;;;17.80;3.50;;;;;;;;;;4956909;28;20502;-74
2022/04/09 07:58:35;;;;;;;7.13;2.73;;;;;;;;;;4957012;28;20416;-74
2022/04/09 08:01:01;;;;;;;78.20;6.10;;;;;;;;;;4956862;28;20436;-73
2022/04/09 08:03:27;;;;;;;14.68;4.28;;;;;;;;;;4956955;28;20420;-74
2022/04/09 08:05:53;;;;;;;9.80;2.50;;;;;;;;;;4956846;28;20190;-72
2022/04/09 08:08:19;;;;;;;14.68;3.20;;;;;;;;;;4957136;28;20503;-72
2022/04/09 08:10:45;;;;;;;12.95;4.60;;;;;;;;;;4956302;28;20217;-74
2022/04/09 08:13:11;;;;;;;13.57;3.80;;;;;;;;;;4956837;28;20180;-73
2022/04/09 08:15:37;;;;;;;10.73;2.83;;;;;;;;;;4957026;28;20181;-74
2022/04/09 08:18:06;;;;;;;14.50;3.85;;;;;;;;;;4956920;28;20650;-74
2022/04/09 08:20:32;;;;;;;14.88;3.10;;;;;;;;;;4956299;28;20534;-73
2022/04/09 08:23:00;;;;;;;8.70;2.63;;;;;;;;;;4956533;28;20221;-72
2022/04/09 08:25:26;;;;;;;5.88;2.40;;;;;;;;;;4956762;28;20577;-75
2022/04/09 08:27:53;;;;;;;5.30;2.33;;;;;;;;;;4956760;28;20558;-74
2022/04/09 08:30:21;;;;;;;7.30;2.20;;;;;;;;;;4956323;28;20333;-72
2022/04/09 08:32:49;;;;;;;3.05;1.48;;;;;;;;;;4956475;28;20202;-73
2022/04/09 08:35:15;;;;;;;6.43;2.40;;;;;;;;;;4971503;28;20204;-74
2022/04/09 08:37:41;;;;;;;7.80;1.77;;;;;;;;;;4956554;28;20181;-73
2022/04/09 08:40:09;;;;;;;12.52;2.30;;;;;;;;;;4956295;28;20433;-73
2022/04/09 08:42:36;;;;;;;5.25;1.75;;;;;;;;;;4956137;28;20208;-74
2022/04/09 08:45:02;;;;;;;6.90;2.30;;;;;;;;;;4956328;28;20256;-75
2022/04/09 08:47:28;;;;;;;9.60;2.53;;;;;;;;;;4956148;28;20184;-74
2022/04/09 08:49:55;;;;;;;6.68;2.20;;;;;;;;;;4970983;28;20198;-75
2022/04/09 08:52:22;;;;;;;6.22;2.10;;;;;;;;;;4955630;28;20236;-73
2022/04/09 08:54:48;;;;;;;9.05;3.00;;;;;;;;;;4956018;28;20177;-74
2022/04/09 08:57:15;;;;;;;13.23;2.60;;;;;;;;;;4955944;28;20197;-75
2022/04/09 08:59:41;;;;;;;7.90;2.53;;;;;;;;;;4969857;28;20429;-74
2022/04/09 09:02:07;;;;;;;8.63;2.13;;;;;;;;;;4955608;28;20284;-73
2022/04/09 09:04:33;;;;;;;8.55;2.65;;;;;;;;;;4955941;28;20177;-73
2022/04/09 09:07:20;;;;;;;7.72;2.60;;;;;;;;;;4955787;28;20254;-72
2022/04/09 09:09:46;;;;;;;10.82;2.00;;;;;;;;;;4955678;28;20216;-75
2022/04/09 09:12:14;;;;;;;14.20;2.00;;;;;;;;;;4955542;28;20204;-74
2022/04/09 09:14:49;;;;;;;17.13;2.38;;;;;;;;;;4970710;28;20181;-73
2022/04/09 09:17:26;;;;;;;14.13;2.55;;;;;;;;;;4955708;28;20749;-74
2022/04/09 09:19:52;;;;;;;8.38;2.50;;;;;;;;;;4956003;28;20232;-72
2022/04/09 09:22:19;;;;;;;9.87;2.80;;;;;;;;;;4970053;28;20217;-75
2022/04/09 09:25:04;;;;;;;3.53;1.48;;;;;;;;;;4955806;28;20418;-74
2022/04/09 09:27:30;;;;;;;10.80;1.75;;;;;;;;;;4955807;28;20189;-73
2022/04/09 09:29:56;;;;;;;3.08;1.50;;;;;;;;;;4955560;28;20205;-70
2022/04/09 09:32:27;;;;;;;9.47;3.00;;;;;;;;;;4955044;28;20687;-73
2022/04/09 09:34:54;;;;;;;8.63;2.17;;;;;;;;;;4955427;28;20401;-74
2022/04/09 09:37:28;;;;;;;17.58;2.90;;;;;;;;;;4955283;28;20173;-72
2022/04/09 09:39:54;;;;;;;5.75;1.90;;;;;;;;;;4955661;28;20200;-71
2022/04/09 09:42:21;;;;;;;5.38;2.25;;;;;;;;;;4970048;28;20207;-73
2022/04/09 09:44:47;;;;;;;8.35;2.30;;;;;;;;;;4955406;28;20174;-74
2022/04/09 09:47:15;;;;;;;10.02;2.47;;;;;;;;;;4954126;28;20189;-74
2022/04/09 09:49:55;;;;;;;9.07;2.50;;;;;;;;;;4955223;28;20565;-73
2022/04/09 09:52:34;;;;;;;6.53;2.30;;;;;;;;;;4969504;28;20304;-74
2022/04/09 09:55:10;;;;;;;5.32;2.15;;;;;;;;;;4955003;28;20218;-73
2022/04/09 09:57:38;;;;;;;6.50;2.20;;;;;;;;;;4954995;28;20264;-73
2022/04/09 10:00:05;;;;;;;7.07;1.70;;;;;;;;;;4955054;28;20181;-75
2022/04/09 10:02:31;;;;;;;4.30;2.17;;;;;;;;;;4954700;28;20207;-75
2022/04/09 10:04:57;;;;;;;3.20;1.50;;;;;;;;;;4955067;28;20233;-74
2022/04/09 10:07:24;;;;;;;8.07;2.20;;;;;;;;;;4954845;28;21021;-73
2022/04/09 10:09:50;;;;;;;9.23;1.67;;;;;;;;;;4954823;28;20466;-74
2022/04/09 10:12:23;;;;;;;3.15;1.70;;;;;;;;;;4937557;29;20617;-75
2022/04/09 10:14:59;;;;;;;5.47;2.03;;;;;;;;;;4954961;28;20659;-75
2022/04/09 10:17:30;;;;;;;7.47;2.28;;;;;;;;;;4954904;28;20178;-74
2022/04/09 10:19:57;;;;;;;4.20;1.70;;;;;;;;;;4954804;28;20710;-74
2022/04/09 10:22:28;;;;;;;7.55;2.28;;;;;;;;;;4954447;28;20597;-73
2022/04/09 10:24:55;;;;;;;7.77;1.90;;;;;;;;;;4954828;28;20249;-74
2022/04/09 10:27:38;;;;;;;5.68;1.92;;;;;;;;;;4954724;28;20415;-73
2022/04/09 10:30:17;;;;;;;10.63;1.92;;;;;;;;;;4954849;28;20612;-74
2022/04/09 10:32:44;;;;;;;5.50;1.50;;;;;;;;;;4954821;28;20218;-75
2022/04/09 10:35:22;;;;;;;7.88;1.88;;;;;;;;;;4955132;28;20215;-75
2022/04/09 10:38:07;;;;;;;5.65;1.63;;;;;;;;;;4969646;28;20187;-74
2022/04/09 10:40:33;;;;;;;4.90;1.92;;;;;;;;;;4954754;28;20172;-71
2022/04/09 10:43:01;;;;;;;4.63;2.37;;;;;;;;;;4954158;28;20217;-73
2022/04/09 10:45:28;;;;;;;4.65;1.95;;;;;;;;;;4954473;28;20407;-73
2022/04/09 10:48:07;;;;;;;2.87;1.70;;;;;;;;;;4954616;28;20201;-74
2022/04/09 10:50:54;;;;;;;5.13;2.00;;;;;;;;;;4954174;28;20493;-74
2022/04/09 10:53:21;;;;;;;4.10;1.30;;;;;;;;;;4954623;28;20221;-75
2022/04/09 10:56:06;;;;;;;6.17;2.30;;;;;;;;;;4954374;28;20461;-74
2022/04/09 10:58:32;;;;;;;4.43;1.63;;;;;;;;;;4954556;28;20474;-74
2022/04/09 11:00:58;;;;;;;5.87;2.30;;;;;;;;;;4954140;28;20420;-75
2022/04/09 11:03:33;;;;;;;3.70;1.97;;;;;;;;;;4954514;28;20415;-73
2022/04/09 11:06:32;;;;;;;2.80;1.60;;;;;;;;;;4954349;28;20409;-75
2022/04/09 11:08:58;;;;;;;4.80;1.65;;;;;;;;;;4942149;29;20200;-70
2022/04/09 11:11:28;;;;;;;5.88;2.03;;;;;;;;;;4954124;28;20201;-73
2022/04/09 11:13:54;;;;;;;2.25;1.58;;;;;;;;;;4953137;28;20185;-75
2022/04/09 11:16:20;;;;;;;1.75;1.10;;;;;;;;;;4954329;28;20204;-74
2022/04/09 11:18:49;;;;;;;2.28;1.00;;;;;;;;;;4954342;28;20216;-74
2022/04/09 11:21:15;;;;;;;2.88;1.10;;;;;;;;;;4954019;28;20208;-73
2022/04/09 11:23:44;;;;;;;7.50;2.00;;;;;;;;;;4957745;28;20174;-73
2022/04/09 11:26:18;;;;;;;3.15;1.70;;;;;;;;;;4957906;28;20198;-75
2022/04/09 11:28:43;;;;;;;4.40;1.58;;;;;;;;;;4957710;28;20170;-76
2022/04/09 11:31:09;;;;;;;1.47;0.93;;;;;;;;;;4957469;28;20209;-75
2022/04/09 11:33:36;;;;;;;3.53;1.80;;;;;;;;;;4957728;28;20413;-74
2022/04/09 11:36:01;;;;;;;8.48;2.15;;;;;;;;;;4957566;28;20423;-73
2022/04/09 11:38:28;;;;;;;4.60;2.05;;;;;;;;;;4957501;28;20320;-74
2022/04/09 11:40:55;;;;;;;4.15;1.80;;;;;;;;;;4957125;28;20209;-74
2022/04/09 11:43:21;;;;;;;8.95;1.90;;;;;;;;;;4957463;28;20174;-77
2022/04/09 11:45:48;;;;;;;6.45;2.17;;;;;;;;;;4957519;28;20189;-77
2022/04/09 11:48:15;;;;;;;8.05;3.10;;;;;;;;;;4957379;28;20187;-75
2022/04/09 11:50:41;;;;;;;6.78;3.15;;;;;;;;;;4956939;28;20290;-75
2022/04/09 11:53:11;;;;;;;9.75;3.10;;;;;;;;;;4957504;28;20212;-75
2022/04/09 11:55:37;;;;;;;10.38;3.33;;;;;;;;;;4957297;28;20254;-77
2022/04/09 11:58:04;;;;;;;9.52;3.30;;;;;;;;;;4957260;28;20180;-77
2022/04/09 12:00:30;;;;;;;8.80;3.05;;;;;;;;;;4956753;28;20210;-75
2022/04/09 12:03:02;;;;;;;6.97;3.15;;;;;;;;;;4957070;28;20541;-76
2022/04/09 12:05:34;;;;;;;5.85;2.28;;;;;;;;;;4957205;28;20224;-78
2022/04/09 12:08:00;;;;;;;5.60;1.90;;;;;;;;;;4957385;28;20190;-74
2022/04/09 12:10:28;;;;;;;8.98;2.20;;;;;;;;;;4956480;28;20205;-74
2022/04/09 12:12:59;;;;;;;5.32;1.70;;;;;;;;;;4957049;28;20212;-75
2022/04/09 12:15:32;;;;;;;1.80;1.15;;;;;;;;;;4957120;28;21060;-75
2022/04/09 12:17:58;;;;;;;1.50;1.10;;;;;;;;;;4957149;28;20538;-74
2022/04/09 12:20:34;;;;;;;3.42;1.58;;;;;;;;;;4956560;28;20267;-73
2022/04/09 12:23:00;;;;;;;4.43;1.30;;;;;;;;;;4956897;28;20204;-75
2022/04/09 12:25:53;;;;;;;3.63;1.35;;;;;;;;;;4956951;28;20234;-74
2022/04/09 12:28:24;;;;;;;3.03;1.40;;;;;;;;;;4956380;28;20572;-76
2022/04/09 12:30:51;;;;;;;5.78;1.67;;;;;;;;;;4956331;28;20200;-74
2022/04/09 12:33:18;;;;;;;2.95;1.27;;;;;;;;;;4956696;28;20169;-75
2022/04/09 12:35:44;;;;;;;5.07;1.73;;;;;;;;;;4956872;28;20173;-76
2022/04/09 12:38:10;;;;;;;2.22;1.30;;;;;;;;;;4956620;28;20200;-75
2022/04/09 12:40:38;;;;;;;1.30;1.20;;;;;;;;;;4956159;28;20178;-72
2022/04/09 12:43:23;;;;;;;2.60;1.40;;;;;;;;;;4956598;28;20226;-75
2022/04/09 12:46:22;;;;;;;2.70;1.20;;;;;;;;;;4971438;28;20192;-73
2022/04/09 12:48:49;;;;;;;2.60;2.05;;;;;;;;;;4955142;28;20669;-73
2022/04/09 12:51:21;;;;;;;3.65;1.60;;;;;;;;;;4955746;28;20224;-74
2022/04/09 12:53:55;;;;;;;4.00;1.70;;;;;;;;;;4956437;28;20199;-75
2022/04/09 12:56:21;;;;;;;3.25;1.90;;;;;;;;;;4956226;28;20175;-74
2022/04/09 12:58:47;;;;;;;4.70;2.28;;;;;;;;;;4956112;28;20170;-74
2022/04/09 13:01:14;;;;;;;3.37;1.50;;;;;;;;;;4955823;28;20206;-75
2022/04/09 13:03:41;;;;;;;2.78;1.33;;;;;;;;;;4954914;29;20406;-76
2022/04/09 13:06:07;;;;;;;1.63;1.52;;;;;;;;;;4956088;28;20170;-73
2022/04/09 13:08:33;;;;;;;1.70;0.90;;;;;;;;;;4955883;28;20177;-73
2022/04/09 13:10:59;;;;;;;2.30;1.00;;;;;;;;;;4955440;28;20218;-74
2022/04/09 13:13:25;;;;;;;3.08;1.20;;;;;;;;;;4956046;28;20413;-74
2022/04/09 13:15:51;;;;;;;3.20;1.40;;;;;;;;;;4955911;28;20178;-74
2022/04/09 13:18:17;;;;;;;2.22;1.05;;;;;;;;;;4970703;28;20443;-73
2022/04/09 13:20:44;;;;;;;3.78;1.35;;;;;;;;;;4955257;28;20187;-74
2022/04/09 13:23:10;;;;;;;5.57;1.17;;;;;;;;;;4955603;28;20212;-74
2022/04/09 13:25:36;;;;;;;4.80;1.65;;;;;;;;;;4955736;28;20190;-75
2022/04/09 13:28:02;;;;;;;3.75;1.50;;;;;;;;;;4938611;29;20189;-74
2022/04/09 13:30:29;;;;;;;2.33;1.50;;;;;;;;;;4955400;28;20568;-74
2022/04/09 13:32:56;;;;;;;2.70;1.80;;;;;;;;;;4955608;28;20200;-75
2022/04/09 13:35:25;;;;;;;3.05;2.15;;;;;;;;;;4955716;28;20214;-74
2022/04/09 13:37:52;;;;;;;3.90;1.98;;;;;;;;;;4955631;28;20556;-74
2022/04/09 13:40:18;;;;;;;3.83;1.77;;;;;;;;;;4955219;28;20198;-72
2022/04/09 13:42:44;;;;;;;5.47;1.80;;;;;;;;;;4955437;28;20205;-74
2022/04/09 13:45:11;;;;;;;3.63;1.60;;;;;;;;;;4969659;28;20194;-74
2022/04/09 13:47:37;;;;;;;1.95;1.73;;;;;;;;;;4955369;28;20607;-75
2022/04/09 13:50:04;;;;;;;4.07;1.67;;;;;;;;;;4955275;28;20263;-76
2022/04/09 13:52:30;;;;;;;4.90;1.67;;;;;;;;;;4954792;28;20292;-74
2022/04/09 13:54:56;;;;;;;2.70;1.60;;;;;;;;;;4955218;28;20186;-73
2022/04/09 13:57:22;;;;;;;1.85;1.38;;;;;;;;;;4955074;28;20418;-73
2022/04/09 13:59:48;;;;;;;2.60;1.38;;;;;;;;;;4955123;28;20187;-75
2022/04/09 14:02:14;;;;;;;3.03;0.90;;;;;;;;;;4954721;28;20214;-74
2022/04/09 14:04:40;;;;;;;3.45;1.40;;;;;;;;;;4955078;28;20208;-74
2022/04/09 14:07:06;;;;;;;4.55;1.25;;;;;;;;;;4954975;28;20541;-73
2022/04/09 14:09:32;;;;;;;3.00;0.95;;;;;;;;;;4954974;28;20220;-74
2022/04/09 14:11:59;;;;;;;1.70;0.90;;;;;;;;;;4954670;28;20307;-74
2022/04/09 14:14:26;;;;;;;16.58;2.92;;;;;;;;;;4969769;28;21050;-73
2022/04/09 14:16:52;;;;;;;5.90;1.40;;;;;;;;;;4955114;28;20193;-73
2022/04/09 14:19:19;;;;;;;2.85;1.25;;;;;;;;;;4955113;28;20186;-74
2022/04/09 14:21:45;;;;;;;4.05;1.13;;;;;;;;;;4954588;28;20529;-74
2022/04/09 14:24:12;;;;;;;2.70;1.13;;;;;;;;;;4969808;28;20195;-72
2022/04/09 14:26:37;;;;;;;2.05;1.80;;;;;;;;;;4955013;28;20180;-72
2022/04/09 14:29:04;;;;;;;2.53;1.40;;;;;;;;;;4954872;28;20542;-74
2022/04/09 14:31:33;;;;;;;6.30;1.58;;;;;;;;;;4954155;28;20427;-73
2022/04/09 14:34:02;;;;;;;2.10;1.38;;;;;;;;;;4954917;28;20177;-73
2022/04/09 14:36:28;;;;;;;2.13;1.27;;;;;;;;;;4954814;28;20174;-73